createdAt,value
2023-01-04T00:03:42.879Z,68.67
2023-01-04T00:08:44.670Z,68.75
2023-01-04T00:13:47.885Z,68.90
2023-01-04T00:18:51.031Z,69.14
2023-01-04T00:23:54.568Z,69.32
2023-01-04T00:29:01.062Z,69.35
2023-01-04T00:34:04.339Z,69.45
2023-01-04T00:39:09.927Z,69.96
2023-01-04T00:44:12.902Z,69.54
2023-01-04T00:49:14.637Z,68.73
2023-01-04T00:54:16.961Z,69.33
2023-01-04T00:59:20.396Z,68.85
2023-01-04T01:04:23.578Z,69.81
2023-01-04T01:09:25.217Z,69.59
2023-01-04T01:14:26.905Z,69.78
2023-01-04T01:19:29.278Z,70.15
2023-01-04T01:24:30.911Z,70.47
2023-01-04T01:29:32.645Z,69.66
2023-01-04T01:34:34.349Z,69.70
2023-01-04T01:39:36.018Z,69.51
2023-01-04T01:44:46.437Z,68.96
2023-01-04T01:49:50.297Z,69.10
2023-01-04T01:54:57.268Z,68.94
2023-01-04T02:00:01.547Z,69.79
2023-01-04T02:05:03.426Z,69.64
2023-01-04T02:10:05.646Z,69.11
2023-01-04T02:15:07.818Z,69.19
2023-01-04T02:20:28.204Z,69.47
2023-01-04T02:25:35.212Z,70.21
2023-01-04T02:31:07.769Z,70.68
2023-01-04T02:36:16.995Z,69.93
2023-01-04T02:41:23.525Z,70.15
2023-01-04T02:46:32.366Z,70.89
2023-01-04T02:51:36.046Z,70.54
2023-01-04T02:57:01.123Z,69.89
2023-01-04T03:02:34.198Z,69.49
2023-01-04T03:07:55.730Z,70.03
2023-01-04T03:13:18.780Z,70.09
2023-01-04T03:18:31.833Z,70.06
2023-01-04T03:23:54.733Z,70.23
2023-01-04T03:29:17.235Z,70.18
2023-01-04T03:34:37.607Z,69.93
2023-01-04T03:40:14.789Z,70.16
2023-01-04T03:45:38.590Z,70.56
2023-01-04T03:50:45.857Z,70.96
2023-01-04T03:55:48.738Z,71.80
2023-01-04T04:00:50.647Z,72.01
2023-01-04T04:06:10.561Z,72.55
2023-01-04T04:11:30.347Z,72.95
2023-01-04T04:16:31.972Z,74.22
2023-01-04T04:21:33.546Z,73.82
2023-01-04T04:26:35.092Z,73.67
2023-01-04T04:31:36.766Z,73.96
2023-01-04T04:36:39.279Z,74.04
2023-01-04T04:41:43.886Z,74.20
2023-01-04T04:46:46.789Z,74.58
2023-01-04T04:51:48.462Z,74.64
2023-01-04T04:56:50.435Z,74.78
2023-01-04T05:01:52.165Z,75.25
2023-01-04T05:06:53.944Z,74.35
2023-01-04T05:12:14.009Z,74.99
2023-01-04T05:17:15.736Z,75.08
2023-01-04T05:22:17.439Z,74.77
2023-01-04T05:27:19.061Z,74.11
2023-01-04T05:32:20.622Z,73.87
2023-01-04T05:37:22.462Z,74.22
2023-01-04T05:42:27.810Z,74.44
2023-01-04T05:47:29.689Z,73.80
2023-01-04T05:52:31.404Z,74.71
2023-01-04T05:57:33.040Z,75.25
2023-01-04T06:02:34.676Z,74.11
2023-01-04T06:07:37.437Z,73.92
2023-01-04T06:12:40.057Z,73.29
2023-01-04T06:17:41.753Z,73.21
2023-01-04T06:22:43.419Z,72.88
2023-01-04T06:27:45.028Z,73.11
2023-01-04T06:32:46.592Z,74.09
2023-01-04T06:37:48.154Z,73.40
2023-01-04T06:42:49.753Z,72.77
2023-01-04T06:47:51.322Z,72.11
2023-01-04T06:52:52.947Z,72.17
2023-01-04T06:57:59.311Z,72.11
2023-01-04T07:03:13.935Z,71.32
2023-01-04T07:08:17.205Z,71.61
2023-01-04T07:13:18.756Z,71.16
2023-01-04T07:18:20.410Z,71.92
2023-01-04T07:23:22.078Z,71.23
2023-01-04T07:28:41.922Z,71.37
2023-01-04T07:33:43.526Z,70.93
2023-01-04T07:38:45.130Z,70.36
2023-01-04T07:43:46.661Z,70.16
2023-01-04T07:48:48.266Z,69.60
2023-01-04T07:53:50.336Z,69.72
2023-01-04T07:58:56.946Z,69.54
2023-01-04T08:03:58.599Z,69.32
2023-01-04T08:09:00.372Z,69.39
2023-01-04T08:14:02.684Z,69.48
2023-01-04T08:19:06.426Z,69.14
2023-01-04T08:24:11.153Z,69.33
2023-01-04T08:29:13.388Z,69.28
2023-01-04T08:34:16.018Z,70.13
2023-01-04T08:39:17.923Z,69.87
2023-01-04T08:44:24.617Z,70.07
2023-01-04T08:49:26.512Z,70.86
2023-01-04T08:54:28.160Z,70.31
2023-01-04T08:59:29.997Z,70.32
2023-01-04T09:04:31.706Z,70.30
2023-01-04T09:09:33.409Z,70.64
2023-01-04T09:14:35.100Z,70.17
2023-01-04T09:19:36.810Z,70.57
2023-01-04T09:24:38.364Z,69.56
2023-01-04T09:29:41.315Z,69.15
2023-01-04T09:34:43.243Z,69.02
2023-01-04T09:39:45.658Z,66.94
2023-01-04T09:50:25.183Z,67.76
2023-01-04T09:55:39.399Z,67.77
2023-01-04T10:00:45.941Z,67.74
2023-01-04T10:05:47.524Z,67.99
2023-01-04T10:10:50.719Z,67.79
2023-01-04T10:15:59.348Z,68.00
2023-01-04T10:26:47.635Z,70.56
2023-01-04T10:31:53.944Z,72.35
2023-01-04T10:37:01.008Z,74.43
2023-01-04T10:42:31.726Z,75.76
2023-01-04T10:47:58.238Z,77.55
2023-01-04T10:53:25.873Z,78.34
2023-01-04T10:58:33.704Z,79.28
2023-01-04T11:03:39.644Z,79.49
2023-01-04T11:08:55.361Z,79.49
2023-01-04T11:13:57.028Z,79.71
2023-01-04T11:18:58.804Z,78.45
2023-01-04T11:24:30.180Z,77.23
2023-01-04T11:29:33.062Z,77.46
2023-01-04T11:34:46.442Z,76.76
2023-01-04T11:39:48.033Z,77.37
2023-01-04T11:44:59.284Z,76.50
2023-01-04T11:50:00.868Z,76.89
2023-01-04T11:55:38.014Z,77.27
2023-01-04T12:00:52.271Z,77.06
2023-01-04T12:05:53.909Z,78.30
2023-01-04T12:10:56.147Z,77.16
2023-01-04T12:16:03.623Z,76.87
2023-01-04T12:21:05.446Z,78.41
2023-01-04T12:26:08.766Z,78.05
2023-01-04T12:31:19.847Z,78.66
2023-01-04T12:36:45.179Z,77.78
2023-01-04T12:42:00.607Z,78.48
2023-01-04T12:47:22.295Z,78.27
2023-01-04T12:52:38.276Z,78.71
2023-01-04T12:57:45.797Z,78.04
2023-01-04T13:03:26.599Z,79.66
2023-01-04T13:08:29.165Z,79.81
2023-01-04T13:13:50.984Z,80.36
2023-01-04T13:18:59.992Z,78.98
2023-01-04T13:24:05.090Z,78.70
2023-01-04T13:29:07.885Z,79.05
2023-01-04T13:34:30.591Z,78.62
2023-01-04T13:39:34.341Z,78.33
2023-01-04T13:45:19.073Z,77.74
2023-01-04T13:50:37.182Z,78.27
2023-01-04T13:55:38.952Z,77.79
2023-01-04T14:00:50.065Z,76.93
2023-01-04T14:05:54.260Z,76.79
2023-01-04T14:10:57.629Z,76.74
2023-01-04T14:16:25.647Z,76.64
2023-01-04T14:21:35.358Z,76.82
2023-01-04T14:26:38.614Z,76.93
2023-01-04T14:31:40.173Z,76.71
2023-01-04T14:36:42.576Z,77.32
2023-01-04T14:41:50.177Z,79.06
2023-01-04T14:46:56.314Z,78.29
2023-01-04T14:52:02.773Z,77.24
2023-01-04T14:57:04.838Z,76.49
2023-01-04T15:02:06.543Z,76.64
2023-01-04T15:07:35.463Z,76.08
2023-01-04T15:12:37.077Z,76.04
2023-01-04T15:17:38.811Z,79.91
2023-01-04T15:22:40.541Z,79.52
2023-01-04T15:27:43.114Z,80.50
2023-01-04T15:32:44.904Z,79.86
2023-01-04T15:37:47.397Z,79.29
2023-01-04T15:43:01.130Z,79.27
2023-01-04T15:48:04.065Z,78.82
2023-01-04T15:53:06.738Z,79.21
2023-01-04T15:58:08.352Z,79.14
2023-01-04T16:03:09.909Z,79.98
2023-01-04T16:08:11.554Z,79.78
2023-01-04T16:13:13.129Z,82.27
2023-01-04T16:18:14.912Z,81.52
2023-01-04T16:23:16.492Z,81.13
2023-01-04T16:28:18.180Z,80.67
2023-01-04T16:33:19.754Z,80.06
2023-01-04T16:38:21.360Z,80.35
2023-01-04T16:43:22.904Z,80.28
2023-01-04T16:48:24.498Z,80.11
2023-01-04T16:53:26.046Z,79.86
2023-01-04T16:58:29.609Z,79.09
2023-01-04T17:03:32.187Z,79.00
2023-01-04T17:08:33.853Z,78.82
2023-01-04T17:13:35.705Z,79.06
2023-01-04T17:18:37.579Z,79.02
2023-01-04T17:23:42.447Z,78.67
2023-01-04T17:28:44.272Z,78.38
2023-01-04T17:33:46.986Z,78.63
2023-01-04T17:38:49.182Z,78.40
2023-01-04T17:43:53.434Z,77.86
2023-01-04T17:49:20.959Z,78.24
2023-01-04T17:54:16.858Z,77.72
2023-01-04T17:59:18.494Z,76.82
2023-01-04T18:04:20.767Z,76.33
2023-01-04T18:09:24.478Z,76.02
2023-01-04T18:14:26.348Z,75.27
2023-01-04T18:19:29.842Z,75.07
2023-01-04T18:24:36.857Z,74.57
2023-01-04T18:29:39.497Z,74.59
2023-01-04T18:34:41.108Z,74.30
2023-01-04T18:39:42.737Z,74.08
2023-01-04T18:44:48.566Z,75.50
2023-01-04T18:49:51.536Z,73.99
2023-01-04T18:54:53.184Z,74.05
2023-01-04T18:59:54.803Z,74.43
2023-01-04T19:04:56.406Z,74.69
2023-01-04T19:09:57.990Z,74.56
2023-01-04T19:14:59.605Z,74.20
2023-01-04T19:20:01.498Z,74.00
2023-01-04T19:25:03.147Z,73.83
2023-01-04T19:30:05.497Z,73.53
2023-01-04T19:35:07.338Z,73.04
2023-01-04T19:40:09.547Z,72.21
2023-01-04T19:45:11.829Z,72.17
2023-01-04T19:50:13.502Z,72.57
2023-01-04T19:55:15.129Z,72.37
2023-01-04T20:00:16.951Z,72.92
2023-01-04T20:05:18.533Z,72.85
2023-01-04T20:10:20.139Z,72.81
2023-01-04T20:15:21.690Z,72.92
2023-01-04T20:20:23.280Z,72.73
2023-01-04T20:25:24.866Z,73.09
2023-01-04T20:30:26.452Z,73.87
2023-01-04T20:35:28.436Z,74.21
2023-01-04T20:40:30.051Z,74.98
2023-01-04T20:45:31.654Z,75.66
2023-01-04T20:50:33.279Z,76.25
2023-01-04T20:55:40.278Z,76.79
2023-01-04T21:00:42.253Z,77.44
2023-01-04T21:05:44.965Z,77.29
2023-01-04T21:10:46.568Z,76.46
2023-01-04T21:15:48.212Z,77.16
2023-01-04T21:20:50.141Z,76.95
2023-01-04T21:25:52.045Z,75.75
2023-01-04T21:30:53.681Z,76.00
2023-01-04T21:35:55.282Z,76.74
2023-01-04T21:40:56.890Z,78.18
2023-01-04T21:45:58.493Z,78.38
2023-01-04T21:51:00.551Z,78.69
2023-01-04T21:56:09.671Z,78.71
2023-01-04T22:01:19.420Z,79.29
2023-01-04T22:06:22.858Z,78.81
2023-01-04T22:11:24.427Z,77.69
2023-01-04T22:16:26.138Z,77.10
2023-01-04T22:21:27.802Z,76.15
2023-01-04T22:26:29.572Z,75.86
2023-01-04T22:31:31.269Z,75.40
2023-01-04T22:36:32.933Z,74.88
2023-01-04T22:41:34.688Z,75.08
2023-01-04T22:46:36.718Z,74.49
2023-01-04T22:51:40.689Z,73.28
2023-01-04T22:56:42.358Z,72.64
2023-01-04T23:01:44.033Z,71.94
2023-01-04T23:06:46.021Z,71.83
2023-01-04T23:11:47.881Z,71.69
2023-01-04T23:16:49.781Z,71.60
2023-01-04T23:21:51.424Z,71.57
2023-01-04T23:26:53.009Z,72.06
2023-01-04T23:31:54.611Z,73.38
2023-01-04T23:36:56.274Z,74.34
2023-01-04T23:41:57.821Z,74.84
2023-01-04T23:47:01.249Z,74.94
2023-01-04T23:52:04.272Z,74.46
2023-01-04T23:57:05.908Z,74.77
